Airfield :
LOGIN :

Register | Disclaimer

   EN    FR    IT 

 










Legend :    VFR   Marginal VFR   IFR   Intensive IFR   Very Intensive IFR
Visi :
Ceiling :
>= 8 km
>= 3000ft
5 to 8 km
1000 to 3000 ft
1500m to 5 km
500 to 1000 ft
800 to 1500m
200 to 500 ft
< 800m
< 200 ft
Symbols :   Thunderstorms  Fog  Heavy snow  Heavy precipitations  Wind > 20 kt
SIGMETs :     Misc.  Thunderstorms  Icing  Turbulence  Mountain Waves  Volcanic Ashes






- Airport Elevation : 32 ft
- IATA code : LKZ


EGUL - RAF Lakenheath

CURRENT METAR :
  • 041355Z 22019G24KT 9999 BKN038 19/13 A2994 RMK AO2A SLP142 T01850129 $

EXPIRED METARs :
  • 041255Z 21012KT 9999 OVC034 17/13 A2995 RMK AO2A SLP145 T01740133 $
  • 041155Z 21012KT 9999 OVC025 17/13 A2997 RMK AO2A SLP152 60000 T01690132 10171 20140 57006 $
  • 041135Z 23014KT 9999 OVC025 17/13 A2997 RMK AO2A SLP152 $
  • 041115Z 22011KT 9999 OVC024 17/13 A2998 RMK AO2A SLP156 $

TAF TAF EGUL
Valid from the 04 at 13:00 until the 05 at 19:00 UTC


041300Z 0413/0519 21010G20KT 9999 BKN030 QNH2992INS
TEMPO 0413/0415 22015G25KT
BECMG 0417/0418 21010KT 9999 SCT015 BKN020 QNH2991INS
BECMG 0419/0420 21010KT 9999 BKN015 BKN180 QNH2989INS
BECMG 0422/0423 21012KT 9999 BKN010 QNH2974INS
BECMG 0505/0506 22010G15KT 9999 BKN012 QNH2972INS
BECMG 0507/0508 21015G25KT 9999 BKN015 QNH2970INS
TEMPO 0509/0513 21025G38KT 8000 -RA 510003
BECMG 0513/0514 24018G28KT 6000 -RA BKN018 OVC060 620606 QNH2976INS TX19/0415Z TN15/0501Z



MET'MAP, your aeronautical weather chart ! - Copyright ORBIFLY December 2007 - Disclaimer

ORBIFLY MET'MAP TEAM :

Programming & Development : Alexandra Zaïnal
Original concept : Baudouin d'Aumeries
Technical & hardware support : Manuel Goepfert
Assistance : Marc-Olivier Méhu




SOURCES & CREDITS :

   NOAA